createdAt,value
2018-12-14T00:00:59.121Z,6.00
2018-12-14T00:02:05.250Z,6.00
2018-12-14T00:03:08.678Z,4.00
2018-12-14T00:04:13.247Z,5.00
2018-12-14T00:05:16.113Z,6.00
2018-12-14T00:06:18.888Z,4.00
2018-12-14T00:07:22.140Z,4.00
2018-12-14T00:08:25.103Z,5.50
2018-12-14T00:09:28.901Z,4.00
2018-12-14T00:10:31.675Z,4.00
2018-12-14T00:11:34.443Z,6.00
2018-12-14T00:12:38.034Z,4.50
2018-12-14T00:13:41.089Z,7.00
2018-12-14T00:14:43.922Z,4.00
2018-12-14T00:15:46.702Z,7.00
2018-12-14T00:16:49.501Z,5.50
2018-12-14T00:17:52.274Z,4.00
2018-12-14T00:18:56.067Z,4.50
2018-12-14T00:19:59.156Z,6.50
2018-12-14T00:21:01.915Z,4.00
2018-12-14T00:22:04.728Z,5.00
2018-12-14T00:23:07.577Z,4.50
2018-12-14T00:24:10.360Z,4.50
2018-12-14T00:25:13.184Z,6.00
2018-12-14T00:26:16.291Z,4.00
2018-12-14T00:27:19.210Z,4.00
2018-12-14T00:28:23.712Z,8.00
2018-12-14T00:29:26.792Z,4.50
2018-12-14T00:30:29.578Z,4.50
2018-12-14T00:31:32.642Z,4.50
2018-12-14T00:32:35.440Z,4.00
2018-12-14T00:33:38.295Z,6.00
2018-12-14T00:34:41.082Z,6.00
2018-12-14T00:35:44.057Z,6.00
2018-12-14T00:36:46.818Z,4.50
2018-12-14T00:37:49.918Z,4.00
2018-12-14T00:38:52.822Z,4.00
2018-12-14T00:39:57.537Z,3.00
2018-12-14T00:41:00.318Z,5.00
2018-12-14T00:42:03.099Z,4.00
2018-12-14T00:43:05.906Z,4.00
2018-12-14T00:44:08.672Z,4.00
2018-12-14T00:45:11.478Z,6.00
2018-12-14T00:46:14.265Z,6.00
2018-12-14T00:47:17.089Z,6.00
2018-12-14T00:48:19.865Z,6.00
2018-12-14T00:49:22.637Z,4.00
2018-12-14T00:50:27.304Z,5.00
2018-12-14T00:51:30.134Z,6.00
2018-12-14T00:52:33.909Z,4.00
2018-12-14T00:53:37.759Z,2.00
2018-12-14T00:54:40.501Z,4.00
2018-12-14T00:55:43.692Z,2.00
2018-12-14T00:56:46.741Z,3.00
2018-12-14T00:57:49.513Z,4.00
2018-12-14T00:58:52.945Z,4.00
2018-12-14T00:59:55.827Z,4.00
2018-12-14T01:00:59.037Z,3.00
2018-12-14T01:02:02.563Z,4.00
2018-12-14T01:03:05.793Z,4.00
2018-12-14T01:04:08.618Z,4.00
2018-12-14T01:05:12.486Z,4.00
2018-12-14T01:06:15.724Z,4.50
2018-12-14T01:07:19.628Z,5.00
2018-12-14T01:08:23.354Z,4.00
2018-12-14T01:09:26.562Z,3.50
2018-12-14T01:10:29.343Z,3.00
2018-12-14T01:11:32.368Z,4.00
2018-12-14T01:12:35.158Z,4.00
2018-12-14T01:13:38.088Z,4.00
2018-12-14T01:14:40.896Z,5.00
2018-12-14T01:15:44.005Z,4.00
2018-12-14T01:16:46.820Z,3.50
2018-12-14T01:17:49.627Z,4.00
2018-12-14T01:18:52.406Z,4.00
2018-12-14T01:19:55.211Z,3.00
2018-12-14T01:20:57.974Z,3.00
2018-12-14T01:22:01.079Z,4.00
2018-12-14T01:23:03.885Z,3.50
2018-12-14T01:24:06.775Z,4.00
2018-12-14T01:25:09.561Z,4.00
2018-12-14T01:26:13.975Z,3.00
2018-12-14T01:27:16.737Z,4.50
2018-12-14T01:28:19.834Z,4.00
2018-12-14T01:29:23.366Z,4.00
2018-12-14T01:30:26.136Z,2.00
2018-12-14T01:31:28.895Z,4.00
2018-12-14T01:32:31.662Z,2.50
2018-12-14T01:33:34.391Z,5.50
2018-12-14T01:34:37.482Z,4.00
2018-12-14T01:35:40.249Z,2.50
2018-12-14T01:36:43.032Z,4.00
2018-12-14T01:37:45.791Z,5.50
2018-12-14T01:38:48.608Z,4.00
2018-12-14T01:39:51.406Z,4.00
2018-12-14T01:40:55.583Z,4.00
2018-12-14T01:42:04.611Z,2.50
2018-12-14T01:43:03.846Z,4.00
2018-12-14T01:44:07.318Z,4.00
2018-12-14T01:45:10.018Z,4.00
2018-12-14T01:46:12.797Z,4.00
2018-12-14T01:47:15.963Z,4.50
2018-12-14T01:48:18.835Z,2.00
2018-12-14T01:49:22.406Z,5.00
2018-12-14T01:50:25.160Z,3.50
2018-12-14T01:51:27.922Z,4.00
2018-12-14T01:52:30.842Z,4.00
2018-12-14T01:53:33.916Z,3.00
2018-12-14T01:54:36.704Z,2.50
2018-12-14T01:55:39.517Z,2.00
2018-12-14T01:56:42.286Z,4.00
2018-12-14T01:57:45.039Z,2.00
2018-12-14T01:58:47.795Z,2.00
2018-12-14T01:59:51.368Z,2.00
2018-12-14T02:00:55.282Z,4.00
2018-12-14T02:02:00.066Z,2.00
2018-12-14T02:03:02.849Z,2.00
2018-12-14T02:04:05.617Z,4.00
2018-12-14T02:05:08.732Z,2.00
2018-12-14T02:06:11.498Z,4.00
2018-12-14T02:07:14.321Z,4.00
2018-12-14T02:08:17.134Z,3.00
2018-12-14T02:09:20.595Z,3.50
2018-12-14T02:10:23.354Z,4.00
2018-12-14T02:11:26.431Z,4.00
2018-12-14T02:12:29.250Z,4.00
2018-12-14T02:13:32.057Z,2.00
2018-12-14T02:14:34.840Z,2.00
2018-12-14T02:15:37.592Z,2.50
2018-12-14T02:16:40.432Z,5.50
2018-12-14T02:17:43.555Z,4.00
2018-12-14T02:18:46.331Z,2.00
2018-12-14T02:19:49.156Z,3.00
2018-12-14T02:20:51.934Z,4.00
2018-12-14T02:21:54.766Z,2.00
2018-12-14T02:22:57.516Z,4.00
2018-12-14T02:24:00.564Z,2.50
2018-12-14T02:25:03.346Z,3.50
2018-12-14T02:26:06.121Z,4.00
2018-12-14T02:27:08.902Z,2.00
2018-12-14T02:28:11.711Z,2.00
2018-12-14T02:29:14.424Z,3.00
2018-12-14T02:30:17.577Z,3.00
2018-12-14T02:31:20.320Z,4.00
2018-12-14T02:32:23.101Z,2.50
2018-12-14T02:33:26.790Z,4.00
2018-12-14T02:34:29.590Z,2.00
2018-12-14T02:35:32.355Z,4.00
2018-12-14T02:36:35.625Z,6.00
2018-12-14T02:37:38.446Z,6.00
2018-12-14T02:38:42.076Z,4.00
2018-12-14T02:39:44.862Z,2.50
2018-12-14T02:40:47.706Z,4.00
2018-12-14T02:41:50.482Z,4.00
2018-12-14T02:42:53.681Z,3.00
2018-12-14T02:43:56.441Z,2.00
2018-12-14T02:44:59.207Z,4.50
2018-12-14T02:46:02.011Z,4.00
2018-12-14T02:47:04.830Z,4.00
2018-12-14T02:48:07.639Z,2.50
2018-12-14T02:49:10.891Z,4.00
2018-12-14T02:50:13.666Z,3.50
2018-12-14T02:51:16.490Z,4.50
2018-12-14T02:52:19.274Z,4.00
2018-12-14T02:53:22.039Z,2.00
2018-12-14T02:54:24.803Z,4.00
2018-12-14T02:55:27.975Z,4.50
2018-12-14T02:56:30.740Z,4.00
2018-12-14T02:57:33.527Z,2.00
2018-12-14T02:58:36.306Z,6.00
2018-12-14T02:59:40.572Z,2.00
2018-12-14T03:00:43.316Z,2.00
2018-12-14T03:01:47.369Z,4.50
2018-12-14T03:02:50.576Z,3.00
2018-12-14T03:03:53.348Z,4.00
2018-12-14T03:04:56.107Z,4.00
2018-12-14T03:05:58.911Z,4.00
2018-12-14T03:07:01.726Z,4.00
2018-12-14T03:08:05.807Z,2.00
2018-12-14T03:09:08.617Z,4.00
2018-12-14T03:10:11.636Z,2.50
2018-12-14T03:11:14.437Z,3.00
2018-12-14T03:12:17.211Z,4.00
2018-12-14T03:13:20.011Z,4.00
2018-12-14T03:14:23.246Z,3.00
2018-12-14T03:15:25.996Z,2.00
2018-12-14T03:16:28.711Z,3.50
2018-12-14T03:17:31.541Z,2.00
2018-12-14T03:18:34.349Z,4.50
2018-12-14T03:19:37.098Z,6.50
2018-12-14T03:20:40.716Z,3.00
2018-12-14T03:21:46.685Z,4.50
2018-12-14T03:22:50.402Z,4.50
2018-12-14T03:23:53.233Z,2.50
2018-12-14T03:24:56.065Z,4.00
2018-12-14T03:25:59.020Z,4.00
2018-12-14T03:27:02.121Z,5.50
2018-12-14T03:28:04.947Z,6.00
2018-12-14T03:29:07.746Z,4.50
2018-12-14T03:30:10.522Z,4.00
2018-12-14T03:31:13.661Z,5.50
2018-12-14T03:32:16.603Z,4.50
2018-12-14T03:33:20.508Z,4.00
2018-12-14T03:34:23.519Z,3.50
2018-12-14T03:35:26.423Z,5.00
2018-12-14T03:36:31.414Z,4.00
2018-12-14T03:37:34.780Z,5.50
2018-12-14T03:38:38.475Z,5.50
2018-12-14T03:39:41.253Z,4.00
2018-12-14T03:40:48.709Z,4.00
2018-12-14T03:41:51.472Z,4.00
2018-12-14T03:42:54.259Z,4.00
2018-12-14T03:43:57.843Z,4.00
2018-12-14T03:45:00.948Z,4.00
2018-12-14T03:46:04.423Z,4.00
2018-12-14T03:47:08.301Z,6.00
2018-12-14T03:48:11.084Z,5.50
2018-12-14T03:49:13.838Z,6.00
2018-12-14T03:50:16.611Z,8.00
2018-12-14T03:51:23.652Z,5.50
2018-12-14T03:52:26.443Z,5.50
2018-12-14T03:53:29.216Z,4.00
2018-12-14T03:54:32.009Z,5.00
2018-12-14T03:55:34.785Z,4.00
2018-12-14T03:56:37.863Z,6.50
2018-12-14T03:57:40.989Z,6.00
2018-12-14T03:58:43.770Z,5.00
2018-12-14T03:59:46.584Z,4.50
2018-12-14T04:00:49.522Z,4.00
2018-12-14T04:01:52.256Z,6.00
2018-12-14T04:02:55.238Z,4.50
2018-12-14T04:03:58.341Z,6.00
2018-12-14T04:05:01.136Z,4.00
2018-12-14T04:06:03.886Z,5.00
2018-12-14T04:07:06.641Z,5.50
2018-12-14T04:08:09.440Z,5.50
2018-12-14T04:09:12.222Z,6.00
2018-12-14T04:10:15.331Z,4.00
2018-12-14T04:11:18.713Z,2.00
2018-12-14T04:12:22.921Z,5.50
2018-12-14T04:13:25.683Z,4.50
2018-12-14T04:14:28.472Z,6.00
2018-12-14T04:15:31.292Z,6.00
2018-12-14T04:16:34.401Z,6.00
2018-12-14T04:17:37.198Z,5.50
2018-12-14T04:18:39.961Z,4.00
2018-12-14T04:19:42.802Z,6.00
2018-12-14T04:20:45.578Z,4.00
2018-12-14T04:21:48.359Z,6.00
2018-12-14T04:22:51.457Z,6.50
2018-12-14T04:23:54.244Z,4.00
2018-12-14T04:24:57.037Z,6.00
2018-12-14T04:25:59.822Z,7.50
2018-12-14T04:27:02.634Z,6.00
2018-12-14T04:28:05.413Z,9.50
2018-12-14T04:29:09.118Z,6.00
2018-12-14T04:30:11.926Z,6.00
2018-12-14T04:31:14.738Z,6.00
2018-12-14T04:32:17.557Z,4.00
2018-12-14T04:33:20.336Z,8.00
2018-12-14T04:34:23.091Z,4.00
2018-12-14T04:35:26.159Z,6.00
2018-12-14T04:36:29.101Z,6.00
2018-12-14T04:37:31.935Z,5.00
2018-12-14T04:38:34.761Z,8.00
2018-12-14T04:39:37.559Z,8.00
2018-12-14T04:40:40.342Z,5.00
2018-12-14T04:41:43.429Z,5.50
2018-12-14T04:42:48.969Z,6.00
2018-12-14T04:43:52.789Z,7.50
2018-12-14T04:44:55.504Z,6.00
2018-12-14T04:45:58.302Z,6.00
2018-12-14T04:47:01.261Z,4.00
2018-12-14T04:48:04.337Z,6.50
2018-12-14T04:49:07.127Z,5.00
2018-12-14T04:50:10.558Z,7.00
2018-12-14T04:51:13.467Z,5.50
2018-12-14T04:52:16.267Z,6.00
2018-12-14T04:53:19.111Z,6.00
2018-12-14T04:54:22.277Z,6.00
2018-12-14T04:55:25.082Z,6.50
2018-12-14T04:56:27.869Z,7.00
2018-12-14T04:57:30.688Z,6.00
2018-12-14T04:58:33.494Z,9.50
2018-12-14T04:59:36.272Z,5.50
2018-12-14T05:00:39.360Z,6.00
2018-12-14T05:01:42.187Z,5.00
2018-12-14T05:02:44.987Z,4.00
2018-12-14T05:03:47.834Z,6.50
2018-12-14T05:04:50.628Z,6.00
2018-12-14T05:05:53.397Z,6.00
2018-12-14T05:06:56.448Z,8.00
2018-12-14T05:07:59.232Z,7.00
2018-12-14T05:09:02.078Z,8.00
2018-12-14T05:10:04.853Z,7.50
2018-12-14T05:11:07.699Z,6.50
2018-12-14T05:12:10.474Z,9.50
2018-12-14T05:13:13.908Z,6.00
2018-12-14T05:14:17.218Z,6.00
2018-12-14T05:15:20.139Z,7.50
2018-12-14T05:16:22.918Z,6.50
2018-12-14T05:17:25.763Z,5.00
2018-12-14T05:18:30.575Z,6.50
2018-12-14T05:19:33.747Z,6.00
2018-12-14T05:20:36.545Z,6.00
2018-12-14T05:21:39.383Z,6.50
2018-12-14T05:22:42.149Z,8.00
2018-12-14T05:23:44.900Z,6.00
2018-12-14T05:24:47.664Z,4.00
2018-12-14T05:25:50.742Z,6.00
2018-12-14T05:26:54.368Z,6.50
2018-12-14T05:27:57.177Z,7.50
2018-12-14T05:29:00.017Z,8.50
2018-12-14T05:30:02.953Z,7.00
2018-12-14T05:31:05.735Z,6.00
2018-12-14T05:32:08.828Z,7.50
2018-12-14T05:33:11.593Z,6.00
2018-12-14T05:34:14.417Z,8.00
2018-12-14T05:35:17.252Z,7.00
2018-12-14T05:36:20.101Z,7.50
2018-12-14T05:37:23.051Z,10.00
2018-12-14T05:38:26.267Z,6.50
2018-12-14T05:39:29.101Z,7.00
2018-12-14T05:40:31.924Z,8.00
2018-12-14T05:41:34.838Z,6.50
2018-12-14T05:42:37.700Z,7.50
2018-12-14T05:43:40.542Z,6.50
2018-12-14T05:44:43.605Z,8.00
2018-12-14T05:45:46.436Z,8.00
2018-12-14T05:46:49.247Z,8.00
2018-12-14T05:47:52.037Z,6.00
2018-12-14T05:48:54.863Z,6.00
2018-12-14T05:49:57.638Z,10.00
2018-12-14T05:51:00.751Z,8.50
2018-12-14T05:52:04.208Z,10.00
2018-12-14T05:53:06.970Z,8.00
2018-12-14T05:54:09.739Z,6.50
2018-12-14T05:55:13.328Z,8.50
2018-12-14T05:56:16.159Z,7.50
2018-12-14T05:57:19.468Z,6.50
2018-12-14T05:58:22.388Z,8.00
2018-12-14T05:59:25.208Z,6.50
2018-12-14T06:00:28.828Z,6.00
2018-12-14T06:01:31.601Z,7.00
2018-12-14T06:02:34.433Z,6.00
2018-12-14T06:03:37.721Z,9.00
2018-12-14T06:04:42.446Z,7.50
2018-12-14T06:05:45.270Z,8.00
2018-12-14T06:06:48.233Z,8.00
2018-12-14T06:07:52.013Z,6.00
2018-12-14T06:08:55.461Z,6.00
2018-12-14T06:09:58.691Z,8.00
2018-12-14T06:11:01.469Z,10.00
2018-12-14T06:12:05.077Z,9.00
2018-12-14T06:13:09.286Z,9.00
2018-12-14T06:14:12.294Z,8.00
2018-12-14T06:15:15.652Z,8.00
2018-12-14T06:16:18.958Z,9.00
2018-12-14T06:17:21.777Z,10.00
2018-12-14T06:18:25.362Z,7.00
2018-12-14T06:19:35.472Z,8.00
2018-12-14T06:20:38.261Z,7.00
2018-12-14T06:21:41.055Z,8.00
2018-12-14T06:22:44.176Z,8.00
2018-12-14T06:23:47.022Z,7.50
2018-12-14T06:24:50.106Z,9.50
2018-12-14T06:25:52.913Z,8.50
2018-12-14T06:26:55.677Z,7.50
2018-12-14T06:27:58.507Z,10.00
2018-12-14T06:29:03.069Z,10.00
2018-12-14T06:45:05.009Z,12.50
2018-12-14T06:46:07.769Z,14.50
2018-12-14T06:47:10.537Z,8.25
2018-12-14T06:48:13.666Z,10.00
2018-12-14T06:49:16.468Z,10.00
2018-12-14T06:50:20.071Z,8.50
2018-12-14T06:51:22.800Z,10.00
2018-12-14T06:52:25.652Z,11.50
2018-12-14T06:53:29.356Z,9.00
2018-12-14T06:54:33.580Z,10.00
2018-12-14T06:55:36.410Z,9.00
2018-12-14T06:56:39.416Z,10.50
2018-12-14T06:57:42.226Z,9.00
2018-12-14T06:58:45.514Z,8.00
2018-12-14T06:59:48.279Z,7.50
2018-12-14T07:00:51.465Z,10.50
2018-12-14T07:01:54.326Z,11.00
2018-12-14T07:02:58.643Z,9.50
2018-12-14T07:04:04.801Z,9.00
2018-12-14T07:05:08.128Z,11.00
2018-12-14T07:06:11.444Z,9.50
2018-12-14T07:07:14.644Z,9.50
2018-12-14T07:08:17.502Z,8.00
2018-12-14T07:09:20.587Z,10.00
2018-12-14T07:10:23.378Z,8.00
2018-12-14T07:11:26.309Z,12.00
2018-12-14T07:12:29.435Z,8.50
2018-12-14T07:13:32.684Z,10.00
2018-12-14T07:14:35.513Z,8.00
2018-12-14T07:15:38.345Z,9.50
2018-12-14T07:16:41.239Z,8.00
2018-12-14T07:17:44.075Z,12.00
2018-12-14T07:18:47.992Z,10.00
2018-12-14T07:19:51.237Z,7.50
2018-12-14T07:20:53.991Z,6.50
2018-12-14T07:21:58.998Z,10.50
2018-12-14T07:23:01.882Z,7.50
2018-12-14T07:24:05.591Z,10.50
2018-12-14T07:25:08.438Z,8.50
2018-12-14T07:26:12.464Z,10.00
2018-12-14T07:27:15.915Z,8.00
2018-12-14T07:28:19.709Z,7.50
2018-12-14T07:29:22.530Z,7.50
2018-12-14T07:30:25.323Z,13.50
2018-12-14T07:31:28.578Z,12.00
2018-12-14T07:32:32.880Z,11.00
2018-12-14T07:33:36.542Z,9.50
2018-12-14T07:34:41.792Z,9.00
2018-12-14T07:35:46.341Z,10.00
2018-12-14T07:36:49.114Z,8.00
2018-12-14T07:37:52.580Z,10.00
2018-12-14T07:38:56.350Z,10.00
2018-12-14T07:39:59.220Z,9.00
2018-12-14T07:41:02.275Z,12.00
2018-12-14T07:42:06.087Z,8.00
2018-12-14T07:43:08.856Z,9.00
2018-12-14T07:44:12.055Z,10.00
2018-12-14T07:45:15.132Z,10.00
2018-12-14T07:46:20.535Z,8.00
2018-12-14T07:47:23.458Z,8.00
2018-12-14T07:48:26.345Z,9.50
2018-12-14T07:49:29.665Z,10.00
2018-12-14T07:50:34.611Z,8.50
2018-12-14T07:51:37.711Z,10.00
2018-12-14T07:52:42.623Z,8.00
2018-12-14T07:53:45.401Z,7.50
2018-12-14T07:54:48.237Z,11.00
2018-12-14T07:55:51.266Z,8.00
2018-12-14T07:56:55.696Z,8.00
2018-12-14T07:57:59.245Z,6.50
2018-12-14T07:59:02.856Z,6.00
2018-12-14T08:00:05.826Z,8.00
2018-12-14T08:01:08.708Z,6.50
2018-12-14T08:02:12.525Z,9.00
2018-12-14T08:03:18.786Z,9.00
2018-12-14T08:04:21.809Z,9.00
2018-12-14T08:05:24.606Z,9.50
2018-12-14T08:06:29.455Z,7.50
2018-12-14T08:07:32.313Z,7.50
2018-12-14T08:08:36.192Z,8.50
2018-12-14T08:09:40.348Z,7.00
2018-12-14T08:10:44.213Z,8.00
2018-12-14T08:11:49.293Z,7.00
2018-12-14T08:12:52.366Z,6.50
2018-12-14T08:13:56.750Z,6.00
2018-12-14T08:14:59.541Z,9.00
2018-12-14T08:16:02.868Z,6.00
2018-12-14T08:17:05.725Z,8.00
2018-12-14T08:18:08.576Z,7.00
2018-12-14T08:19:12.333Z,6.00
2018-12-14T08:20:17.288Z,6.00
2018-12-14T08:21:20.197Z,8.00
2018-12-14T08:22:23.353Z,7.00
2018-12-14T08:23:26.755Z,6.00
2018-12-14T08:24:29.626Z,6.00
2018-12-14T08:25:32.655Z,6.00
2018-12-14T08:26:39.885Z,8.00
2018-12-14T08:27:42.749Z,7.00
2018-12-14T08:28:46.141Z,8.00
2018-12-14T08:29:48.974Z,7.50
2018-12-14T08:30:51.849Z,7.50
2018-12-14T08:31:54.737Z,8.50
2018-12-14T08:32:57.534Z,5.00
2018-12-14T08:34:00.626Z,8.00
2018-12-14T08:35:03.445Z,8.50
2018-12-14T08:36:06.360Z,6.00
2018-12-14T08:37:09.166Z,10.00
2018-12-14T08:38:12.703Z,9.50
2018-12-14T08:39:17.182Z,6.00
2018-12-14T08:40:20.368Z,6.00
2018-12-14T08:41:23.224Z,6.50
2018-12-14T08:42:26.130Z,9.00
2018-12-14T08:43:30.597Z,8.00
2018-12-14T08:44:33.428Z,6.50
2018-12-14T08:45:36.229Z,8.00
2018-12-14T08:46:39.640Z,8.00
2018-12-14T08:47:42.472Z,8.00
2018-12-14T08:48:46.099Z,5.50
2018-12-14T08:49:48.953Z,8.00
2018-12-14T08:50:52.725Z,8.00
2018-12-14T08:51:56.490Z,7.50
2018-12-14T08:52:59.311Z,7.00
2018-12-14T08:54:02.227Z,9.00
2018-12-14T08:55:05.697Z,10.00
2018-12-14T08:56:08.528Z,7.50
2018-12-14T08:57:11.382Z,6.00
2018-12-14T08:58:14.463Z,8.00
2018-12-14T08:59:17.283Z,10.00
2018-12-14T09:00:20.093Z,6.50
2018-12-14T09:01:22.873Z,8.00
2018-12-14T09:02:25.719Z,8.00
2018-12-14T09:03:29.250Z,7.00
2018-12-14T09:04:32.510Z,7.50
2018-12-14T09:05:35.344Z,9.00
2018-12-14T09:06:38.151Z,8.50
2018-12-14T09:07:40.920Z,8.00
2018-12-14T09:08:44.454Z,8.00
2018-12-14T09:09:47.367Z,7.50
2018-12-14T09:10:56.243Z,6.00
2018-12-14T09:11:59.073Z,7.00
2018-12-14T09:13:01.911Z,8.00
2018-12-14T09:14:04.796Z,8.50
2018-12-14T09:15:07.640Z,4.50
2018-12-14T09:16:10.394Z,6.00
2018-12-14T09:17:13.547Z,6.50
2018-12-14T09:18:16.411Z,6.00
2018-12-14T09:19:20.178Z,8.00
2018-12-14T09:20:22.986Z,8.00
2018-12-14T09:21:25.834Z,7.00
2018-12-14T09:22:29.861Z,9.00
2018-12-14T09:23:34.042Z,8.00
2018-12-14T09:24:38.258Z,10.00
2018-12-14T09:25:41.296Z,8.00
2018-12-14T09:26:44.188Z,7.50
2018-12-14T09:27:47.593Z,8.50
2018-12-14T09:28:51.423Z,6.50
2018-12-14T09:29:55.347Z,11.50
2018-12-14T09:30:58.213Z,10.00
2018-12-14T09:32:01.086Z,10.50
2018-12-14T09:33:04.072Z,8.00
2018-12-14T09:34:07.423Z,9.00
2018-12-14T09:35:10.326Z,10.50
2018-12-14T09:36:13.477Z,7.50
2018-12-14T09:37:16.299Z,8.50
2018-12-14T09:38:19.372Z,7.00
2018-12-14T09:39:22.405Z,8.50
2018-12-14T09:40:27.701Z,9.50
2018-12-14T09:41:31.501Z,8.00
2018-12-14T09:42:35.611Z,8.00
2018-12-14T09:43:38.634Z,9.50
2018-12-14T09:44:41.458Z,10.00
2018-12-14T09:45:47.949Z,10.00
2018-12-14T09:46:50.871Z,8.50
2018-12-14T09:47:53.748Z,6.50
2018-12-14T09:48:56.962Z,9.50
2018-12-14T09:50:01.895Z,8.00
2018-12-14T09:51:12.183Z,11.50
2018-12-14T09:52:10.471Z,9.00
2018-12-14T09:53:16.560Z,10.50
2018-12-14T09:54:21.455Z,8.00
2018-12-14T09:55:25.396Z,7.50
2018-12-14T09:56:29.374Z,8.00
2018-12-14T09:57:34.910Z,8.00
2018-12-14T09:58:37.826Z,8.00
2018-12-14T09:59:40.649Z,6.00
2018-12-14T10:00:43.454Z,8.00
2018-12-14T10:01:46.248Z,6.50
2018-12-14T10:02:49.046Z,8.00
2018-12-14T10:03:52.150Z,8.00
2018-12-14T10:06:42.146Z,7.50
2018-12-14T10:07:46.959Z,6.00
2018-12-14T10:08:53.234Z,8.00
2018-12-14T10:09:56.042Z,6.00
2018-12-14T10:10:59.042Z,13.00
2018-12-14T10:12:01.840Z,8.00
2018-12-14T10:13:08.997Z,8.00
2018-12-14T10:14:12.716Z,8.00
2018-12-14T10:15:15.743Z,7.00
2018-12-14T10:16:19.504Z,8.50
2018-12-14T10:17:23.064Z,8.00
2018-12-14T10:18:26.602Z,8.50
2018-12-14T10:19:29.848Z,10.00
2018-12-14T10:20:32.801Z,11.00
2018-12-14T10:21:35.611Z,8.00
2018-12-14T10:22:41.550Z,7.00
2018-12-14T10:23:44.722Z,7.00
2018-12-14T10:24:47.956Z,10.50
2018-12-14T10:25:51.257Z,8.00
2018-12-14T10:26:54.968Z,10.00
2018-12-14T10:27:58.021Z,8.00
2018-12-14T10:29:01.092Z,7.00
2018-12-14T10:30:04.139Z,9.50
2018-12-14T10:31:07.724Z,9.50
2018-12-14T10:32:11.185Z,6.00
2018-12-14T10:33:15.044Z,8.00
2018-12-14T10:34:18.301Z,6.50
2018-12-14T10:35:25.718Z,9.00
2018-12-14T10:36:29.864Z,8.00
2018-12-14T10:37:33.495Z,9.50
2018-12-14T10:38:38.832Z,9.00
2018-12-14T10:39:43.133Z,8.00
2018-12-14T10:40:46.437Z,7.50
2018-12-14T10:41:49.406Z,10.00
2018-12-14T10:42:53.669Z,7.50
2018-12-14T10:43:56.959Z,8.00
2018-12-14T10:45:04.903Z,7.00
2018-12-14T10:46:07.799Z,8.00
2018-12-14T10:47:11.609Z,7.50
2018-12-14T10:48:15.958Z,6.00
2018-12-14T10:49:19.506Z,8.00
2018-12-14T10:50:22.884Z,10.00
2018-12-14T10:51:26.734Z,9.50
2018-12-14T10:52:29.913Z,11.50
2018-12-14T10:53:32.803Z,9.00
2018-12-14T10:54:36.017Z,7.00
2018-12-14T10:55:39.116Z,9.00
2018-12-14T10:56:42.084Z,8.50
2018-12-14T10:57:46.650Z,7.00
2018-12-14T10:58:49.589Z,6.50
2018-12-14T10:59:53.213Z,8.00
2018-12-14T11:01:00.909Z,7.50
2018-12-14T11:02:03.912Z,10.00
2018-12-14T11:03:06.794Z,9.00
2018-12-14T11:04:10.185Z,10.00
2018-12-14T11:05:13.144Z,10.00
2018-12-14T11:06:16.715Z,12.00
2018-12-14T11:07:19.685Z,9.00
2018-12-14T11:08:22.715Z,8.50
2018-12-14T11:09:25.756Z,9.00
2018-12-14T11:14:39.028Z,8.00
2018-12-14T11:15:43.564Z,12.50
2018-12-14T11:16:46.559Z,8.50
2018-12-14T11:17:50.598Z,10.00
2018-12-14T11:18:54.672Z,8.00
2018-12-14T11:19:58.185Z,11.50
2018-12-14T11:21:01.132Z,12.00
2018-12-14T11:22:05.908Z,11.00
2018-12-14T11:23:09.624Z,12.00
2018-12-14T11:24:12.617Z,13.00
2018-12-14T11:25:15.422Z,12.00
2018-12-14T11:26:18.518Z,6.00
2018-12-14T11:27:21.476Z,6.50
2018-12-14T11:28:25.760Z,8.00
2018-12-14T11:29:28.665Z,8.00
2018-12-14T11:42:53.263Z,9.50
2018-12-14T11:45:10.241Z,15.50
2018-12-14T11:46:14.629Z,11.00
2018-12-14T11:47:18.784Z,11.00
2018-12-14T11:48:21.594Z,11.00
2018-12-14T11:49:24.524Z,8.00
2018-12-14T11:50:29.369Z,11.50
2018-12-14T11:51:33.495Z,9.50
2018-12-14T11:52:36.426Z,9.00
2018-12-14T11:53:40.583Z,11.00
2018-12-14T11:54:43.670Z,11.00
2018-12-14T11:55:46.595Z,11.50
2018-12-14T11:56:49.602Z,9.00
2018-12-14T11:57:52.566Z,7.50
2018-12-14T11:58:55.450Z,9.50
2018-12-14T11:59:58.565Z,10.00
2018-12-14T12:01:01.450Z,10.00
2018-12-14T12:02:04.406Z,10.50
2018-12-14T12:03:07.562Z,10.50
2018-12-14T12:04:11.130Z,8.50
2018-12-14T12:05:14.512Z,10.00
2018-12-14T12:06:18.759Z,8.50
2018-12-14T12:07:23.712Z,10.00
2018-12-14T12:08:27.648Z,10.00
2018-12-14T12:09:31.532Z,10.50
2018-12-14T12:10:37.341Z,11.00
2018-12-14T12:11:40.140Z,6.00
2018-12-14T12:12:45.861Z,10.00
2018-12-14T12:13:48.699Z,9.00
2018-12-14T12:14:51.541Z,10.00
2018-12-14T12:15:55.397Z,11.50
2018-12-14T12:16:58.496Z,10.00
2018-12-14T12:18:01.689Z,11.50
2018-12-14T12:19:09.027Z,12.00
2018-12-14T12:20:13.329Z,10.50
2018-12-14T12:21:16.446Z,10.50
2018-12-14T12:22:19.290Z,6.00
2018-12-14T12:23:23.766Z,8.00
2018-12-14T12:24:27.125Z,9.50
2018-12-14T12:25:32.480Z,6.00
2018-12-14T12:26:37.127Z,8.50
2018-12-14T12:27:41.939Z,8.00
2018-12-14T12:28:45.533Z,10.00
2018-12-14T12:29:51.705Z,9.50
2018-12-14T12:30:55.807Z,7.50
2018-12-14T12:31:59.718Z,6.50
2018-12-14T12:33:02.539Z,6.50
2018-12-14T12:34:07.343Z,8.50
2018-12-14T12:35:10.289Z,9.50
2018-12-14T12:36:13.100Z,8.00
2018-12-14T12:37:16.856Z,10.00
2018-12-14T12:38:20.644Z,9.50
2018-12-14T12:39:25.794Z,14.50
2018-12-14T12:40:29.714Z,7.50
2018-12-14T12:41:35.774Z,8.00
2018-12-14T12:42:39.808Z,9.50
2018-12-14T12:43:44.406Z,8.00
2018-12-14T12:44:47.416Z,8.00
2018-12-14T12:45:52.200Z,8.50
2018-12-14T12:46:56.619Z,8.00
2018-12-14T12:48:03.945Z,10.00
2018-12-14T12:49:06.932Z,10.50
2018-12-14T12:50:10.655Z,8.00
2018-12-14T12:51:14.991Z,6.00
2018-12-14T12:52:18.148Z,6.50
2018-12-14T12:53:21.157Z,7.50
2018-12-14T12:54:24.036Z,7.00
2018-12-14T12:55:28.473Z,6.50
2018-12-14T12:56:32.355Z,10.00
2018-12-14T12:57:35.290Z,8.00
2018-12-14T12:58:39.450Z,8.50
2018-12-14T12:59:42.759Z,8.50
2018-12-14T13:00:45.755Z,6.50
2018-12-14T13:01:49.891Z,8.00
2018-12-14T13:02:52.727Z,6.00
2018-12-14T13:03:57.740Z,6.00
2018-12-14T13:05:02.249Z,5.50
2018-12-14T13:06:05.235Z,8.00
2018-12-14T13:07:08.864Z,7.00
2018-12-14T13:08:12.477Z,8.00
2018-12-14T13:09:15.351Z,8.00
2018-12-14T13:10:18.517Z,7.50
2018-12-14T13:11:21.355Z,6.50
2018-12-14T13:12:27.191Z,7.50
2018-12-14T13:13:30.703Z,7.00
2018-12-14T13:14:39.860Z,8.00
2018-12-14T13:15:39.342Z,7.00
2018-12-14T13:16:45.944Z,6.00
2018-12-14T13:17:48.831Z,7.00
2018-12-14T13:18:52.893Z,6.00
2018-12-14T13:19:56.143Z,6.00
2018-12-14T13:20:58.981Z,10.00
2018-12-14T13:22:01.785Z,7.50
2018-12-14T13:23:05.790Z,8.00
2018-12-14T13:24:08.768Z,7.00
2018-12-14T13:25:12.597Z,10.00
2018-12-14T13:26:17.261Z,7.50
2018-12-14T13:27:20.773Z,6.00
2018-12-14T13:28:23.803Z,6.50
2018-12-14T13:29:27.371Z,8.00
2018-12-14T13:30:30.176Z,8.00
2018-12-14T13:31:33.092Z,7.00
2018-12-14T13:32:36.504Z,6.00
2018-12-14T13:33:39.356Z,6.00
2018-12-14T13:34:42.909Z,7.00
2018-12-14T13:35:45.759Z,8.00
2018-12-14T13:36:49.030Z,9.50
2018-12-14T13:37:52.123Z,10.00
2018-12-14T13:38:54.928Z,8.00
2018-12-14T13:39:57.907Z,8.00
2018-12-14T13:41:01.593Z,8.50
2018-12-14T13:42:04.449Z,8.00
2018-12-14T13:43:07.309Z,7.50
2018-12-14T13:44:10.471Z,8.50
2018-12-14T13:45:14.469Z,8.00
2018-12-14T13:46:17.428Z,8.00
2018-12-14T13:47:20.286Z,8.50
2018-12-14T13:48:23.825Z,10.00
2018-12-14T13:49:27.830Z,8.00
2018-12-14T13:50:31.534Z,7.50
2018-12-14T13:51:34.668Z,9.50
2018-12-14T13:52:37.515Z,9.50
2018-12-14T13:53:41.330Z,10.00
2018-12-14T13:54:45.814Z,10.00
2018-12-14T13:55:50.179Z,8.00
2018-12-14T13:56:53.564Z,8.50
2018-12-14T13:57:58.418Z,9.00
2018-12-14T13:59:01.642Z,8.00
2018-12-14T14:00:07.854Z,10.00
2018-12-14T14:01:12.479Z,8.50
2018-12-14T14:02:18.190Z,10.50
2018-12-14T14:03:21.718Z,6.00
2018-12-14T14:04:24.526Z,9.50
2018-12-14T14:05:27.375Z,10.00
2018-12-14T14:06:30.203Z,10.00
2018-12-14T14:07:34.402Z,7.50
2018-12-14T14:08:37.282Z,8.50
2018-12-14T14:09:42.367Z,8.00
2018-12-14T14:10:45.175Z,10.00
2018-12-14T14:11:47.974Z,9.50
2018-12-14T14:12:50.788Z,10.50
2018-12-14T14:13:53.868Z,10.50
2018-12-14T14:14:57.284Z,8.00
2018-12-14T14:16:00.192Z,12.00
2018-12-14T14:17:03.211Z,13.50
2018-12-14T14:18:06.157Z,12.00
2018-12-14T14:19:10.678Z,10.00
2018-12-14T14:20:13.578Z,10.00
2018-12-14T14:21:16.811Z,12.00
2018-12-14T14:22:19.763Z,8.50
2018-12-14T14:23:23.170Z,9.50
2018-12-14T14:24:26.835Z,9.50
2018-12-14T14:25:32.064Z,11.50
2018-12-14T14:26:36.459Z,10.00
2018-12-14T14:27:40.555Z,14.00
2018-12-14T14:28:43.554Z,10.50
2018-12-14T14:29:47.283Z,13.00
2018-12-14T14:30:52.370Z,10.00
2018-12-14T14:31:55.526Z,9.00
2018-12-14T14:32:58.615Z,8.00
2018-12-14T14:34:01.756Z,11.50